sensor_id;sensor_type;location;lat;lon;timestamp;temperature;humidity
24408;DHT22;12542;50.924;4.516;2023-12-20T00:01:36;7.80;99.90
24408;DHT22;12542;50.924;4.516;2023-12-20T00:04:02;7.80;99.90
24408;DHT22;12542;50.924;4.516;2023-12-20T00:06:29;7.80;99.90
24408;DHT22;12542;50.924;4.516;2023-12-20T00:08:54;7.70;99.90
24408;DHT22;12542;50.924;4.516;2023-12-20T00:11:20;7.60;99.90
24408;DHT22;12542;50.924;4.516;2023-12-20T00:13:46;7.70;99.90
24408;DHT22;12542;50.924;4.516;2023-12-20T00:16:11;7.60;99.90
24408;DHT22;12542;50.924;4.516;2023-12-20T00:18:39;7.70;99.90
24408;DHT22;12542;50.924;4.516;2023-12-20T00:21:05;7.70;99.90
24408;DHT22;12542;50.924;4.516;2023-12-20T00:26:54;7.70;99.90
24408;DHT22;12542;50.924;4.516;2023-12-20T00:29:20;7.50;99.90
24408;DHT22;12542;50.924;4.516;2023-12-20T00:31:46;7.60;99.90
24408;DHT22;12542;50.924;4.516;2023-12-20T00:34:12;7.50;99.90
24408;DHT22;12542;50.924;4.516;2023-12-20T00:36:37;7.50;99.90
24408;DHT22;12542;50.924;4.516;2023-12-20T00:39:03;7.50;99.90
24408;DHT22;12542;50.924;4.516;2023-12-20T00:41:29;7.40;99.90
24408;DHT22;12542;50.924;4.516;2023-12-20T00:43:55;7.50;99.90
24408;DHT22;12542;50.924;4.516;2023-12-20T00:46:21;7.30;99.90
24408;DHT22;12542;50.924;4.516;2023-12-20T00:48:47;7.30;99.90
24408;DHT22;12542;50.924;4.516;2023-12-20T00:51:12;7.40;99.90
24408;DHT22;12542;50.924;4.516;2023-12-20T00:53:40;7.30;99.90
24408;DHT22;12542;50.924;4.516;2023-12-20T00:56:06;7.40;99.90
24408;DHT22;12542;50.924;4.516;2023-12-20T00:58:32;7.30;99.90
24408;DHT22;12542;50.924;4.516;2023-12-20T01:00:57;7.10;99.90
24408;DHT22;12542;50.924;4.516;2023-12-20T01:03:23;7.10;99.90
24408;DHT22;12542;50.924;4.516;2023-12-20T01:05:49;7.20;99.90
24408;DHT22;12542;50.924;4.516;2023-12-20T01:08:15;7.20;99.90
24408;DHT22;12542;50.924;4.516;2023-12-20T01:10:41;7.20;99.90
24408;DHT22;12542;50.924;4.516;2023-12-20T01:13:08;7.20;99.90
24408;DHT22;12542;50.924;4.516;2023-12-20T01:15:34;7.20;99.90
24408;DHT22;12542;50.924;4.516;2023-12-20T01:18:00;7.10;99.90
24408;DHT22;12542;50.924;4.516;2023-12-20T01:20:25;7.10;99.90
24408;DHT22;12542;50.924;4.516;2023-12-20T01:22:51;7.10;99.90
24408;DHT22;12542;50.924;4.516;2023-12-20T01:25:17;7.20;99.90
24408;DHT22;12542;50.924;4.516;2023-12-20T01:27:42;7.10;99.90
24408;DHT22;12542;50.924;4.516;2023-12-20T01:30:08;7.10;99.90
24408;DHT22;12542;50.924;4.516;2023-12-20T01:32:34;7.10;99.90
24408;DHT22;12542;50.924;4.516;2023-12-20T01:35:00;7.10;99.90
24408;DHT22;12542;50.924;4.516;2023-12-20T01:37:25;7.10;99.90
24408;DHT22;12542;50.924;4.516;2023-12-20T01:39:52;7.10;99.90
24408;DHT22;12542;50.924;4.516;2023-12-20T01:42:18;7.20;99.90
24408;DHT22;12542;50.924;4.516;2023-12-20T01:44:44;7.20;99.90
24408;DHT22;12542;50.924;4.516;2023-12-20T01:47:10;7.10;99.90
24408;DHT22;12542;50.924;4.516;2023-12-20T01:49:35;7.00;99.90
24408;DHT22;12542;50.924;4.516;2023-12-20T01:52:01;7.10;99.90
24408;DHT22;12542;50.924;4.516;2023-12-20T01:54:27;6.90;99.90
24408;DHT22;12542;50.924;4.516;2023-12-20T01:56:53;6.90;99.90
24408;DHT22;12542;50.924;4.516;2023-12-20T01:59:20;6.90;99.90
24408;DHT22;12542;50.924;4.516;2023-12-20T02:01:46;7.00;99.90
24408;DHT22;12542;50.924;4.516;2023-12-20T02:04:12;7.00;99.90
24408;DHT22;12542;50.924;4.516;2023-12-20T02:06:39;7.00;99.90
24408;DHT22;12542;50.924;4.516;2023-12-20T02:09:06;7.00;99.90
24408;DHT22;12542;50.924;4.516;2023-12-20T02:11:33;7.10;99.90
24408;DHT22;12542;50.924;4.516;2023-12-20T02:13:59;7.10;99.90
24408;DHT22;12542;50.924;4.516;2023-12-20T02:16:24;7.20;99.90
24408;DHT22;12542;50.924;4.516;2023-12-20T02:18:50;7.20;99.90
24408;DHT22;12542;50.924;4.516;2023-12-20T02:21:16;7.30;99.90
24408;DHT22;12542;50.924;4.516;2023-12-20T02:23:41;7.10;99.90
24408;DHT22;12542;50.924;4.516;2023-12-20T02:26:07;7.10;99.90
24408;DHT22;12542;50.924;4.516;2023-12-20T02:28:35;7.10;99.90
24408;DHT22;12542;50.924;4.516;2023-12-20T02:31:02;7.00;99.90
24408;DHT22;12542;50.924;4.516;2023-12-20T02:33:27;7.00;99.90
24408;DHT22;12542;50.924;4.516;2023-12-20T02:35:53;7.10;99.90
24408;DHT22;12542;50.924;4.516;2023-12-20T02:38:19;7.10;99.90
24408;DHT22;12542;50.924;4.516;2023-12-20T02:40:44;7.20;99.90
24408;DHT22;12542;50.924;4.516;2023-12-20T02:43:10;7.30;99.90
24408;DHT22;12542;50.924;4.516;2023-12-20T02:45:36;7.30;99.90
24408;DHT22;12542;50.924;4.516;2023-12-20T02:48:02;7.20;99.90
24408;DHT22;12542;50.924;4.516;2023-12-20T02:50:27;7.30;99.90
24408;DHT22;12542;50.924;4.516;2023-12-20T02:52:53;7.40;99.90
24408;DHT22;12542;50.924;4.516;2023-12-20T02:55:18;7.40;99.90
24408;DHT22;12542;50.924;4.516;2023-12-20T02:57:46;7.50;99.90
24408;DHT22;12542;50.924;4.516;2023-12-20T03:00:12;7.50;99.90
24408;DHT22;12542;50.924;4.516;2023-12-20T03:02:37;7.50;99.90
24408;DHT22;12542;50.924;4.516;2023-12-20T03:05:03;7.50;99.90
24408;DHT22;12542;50.924;4.516;2023-12-20T03:07:29;7.60;99.90
24408;DHT22;12542;50.924;4.516;2023-12-20T03:09:55;7.50;99.90
24408;DHT22;12542;50.924;4.516;2023-12-20T03:12:20;7.40;99.90
24408;DHT22;12542;50.924;4.516;2023-12-20T03:14:46;7.50;99.90
24408;DHT22;12542;50.924;4.516;2023-12-20T03:17:11;7.50;99.90
24408;DHT22;12542;50.924;4.516;2023-12-20T03:19:37;7.40;99.90
24408;DHT22;12542;50.924;4.516;2023-12-20T03:22:03;7.30;99.90
24408;DHT22;12542;50.924;4.516;2023-12-20T03:24:28;7.30;99.90
24408;DHT22;12542;50.924;4.516;2023-12-20T03:26:54;7.40;99.90
24408;DHT22;12542;50.924;4.516;2023-12-20T03:29:20;7.40;99.90
24408;DHT22;12542;50.924;4.516;2023-12-20T03:31:45;7.50;99.90
24408;DHT22;12542;50.924;4.516;2023-12-20T03:34:13;7.50;99.90
24408;DHT22;12542;50.924;4.516;2023-12-20T03:36:40;7.50;99.90
24408;DHT22;12542;50.924;4.516;2023-12-20T03:39:05;7.60;99.90
24408;DHT22;12542;50.924;4.516;2023-12-20T03:41:31;7.50;99.90
24408;DHT22;12542;50.924;4.516;2023-12-20T03:43:56;7.50;99.90
24408;DHT22;12542;50.924;4.516;2023-12-20T03:46:22;7.50;99.90
24408;DHT22;12542;50.924;4.516;2023-12-20T03:48:48;7.50;99.90
24408;DHT22;12542;50.924;4.516;2023-12-20T03:51:14;7.70;99.90
24408;DHT22;12542;50.924;4.516;2023-12-20T03:53:39;7.60;99.90
24408;DHT22;12542;50.924;4.516;2023-12-20T03:56:06;7.70;99.90
24408;DHT22;12542;50.924;4.516;2023-12-20T03:58:32;7.70;99.90
24408;DHT22;12542;50.924;4.516;2023-12-20T04:00:57;7.70;99.90
24408;DHT22;12542;50.924;4.516;2023-12-20T04:03:23;7.60;99.90
24408;DHT22;12542;50.924;4.516;2023-12-20T04:05:48;7.60;99.90
24408;DHT22;12542;50.924;4.516;2023-12-20T04:08:14;7.80;99.90
24408;DHT22;12542;50.924;4.516;2023-12-20T04:10:40;7.70;99.90
24408;DHT22;12542;50.924;4.516;2023-12-20T04:13:06;7.60;99.90
24408;DHT22;12542;50.924;4.516;2023-12-20T04:15:31;7.50;99.90
24408;DHT22;12542;50.924;4.516;2023-12-20T04:17:57;7.50;99.90
24408;DHT22;12542;50.924;4.516;2023-12-20T04:20:23;7.60;99.90
24408;DHT22;12542;50.924;4.516;2023-12-20T04:22:48;7.60;99.90
24408;DHT22;12542;50.924;4.516;2023-12-20T04:25:14;7.70;99.90
24408;DHT22;12542;50.924;4.516;2023-12-20T04:27:39;7.70;99.90
24408;DHT22;12542;50.924;4.516;2023-12-20T04:30:06;7.60;99.90
24408;DHT22;12542;50.924;4.516;2023-12-20T04:32:33;7.40;99.90
24408;DHT22;12542;50.924;4.516;2023-12-20T04:34:58;7.40;99.90
24408;DHT22;12542;50.924;4.516;2023-12-20T04:37:24;7.30;99.90
24408;DHT22;12542;50.924;4.516;2023-12-20T04:39:50;7.40;99.90
24408;DHT22;12542;50.924;4.516;2023-12-20T04:42:16;7.30;99.90
24408;DHT22;12542;50.924;4.516;2023-12-20T04:44:41;7.50;99.90
24408;DHT22;12542;50.924;4.516;2023-12-20T04:47:09;7.50;99.90
24408;DHT22;12542;50.924;4.516;2023-12-20T04:49:34;7.50;99.90
24408;DHT22;12542;50.924;4.516;2023-12-20T04:52:00;7.60;99.90
24408;DHT22;12542;50.924;4.516;2023-12-20T04:54:26;7.70;99.90
24408;DHT22;12542;50.924;4.516;2023-12-20T04:56:51;7.70;99.90
24408;DHT22;12542;50.924;4.516;2023-12-20T04:59:17;7.70;99.90
24408;DHT22;12542;50.924;4.516;2023-12-20T05:01:42;7.50;99.90
24408;DHT22;12542;50.924;4.516;2023-12-20T05:04:08;7.50;99.90
24408;DHT22;12542;50.924;4.516;2023-12-20T05:06:34;7.70;99.90
24408;DHT22;12542;50.924;4.516;2023-12-20T05:08:59;7.70;99.90
24408;DHT22;12542;50.924;4.516;2023-12-20T05:11:25;7.50;99.90
24408;DHT22;12542;50.924;4.516;2023-12-20T05:13:51;7.50;99.90
24408;DHT22;12542;50.924;4.516;2023-12-20T05:16:16;7.50;99.90
24408;DHT22;12542;50.924;4.516;2023-12-20T05:18:48;7.40;99.90
24408;DHT22;12542;50.924;4.516;2023-12-20T05:21:18;7.20;99.90
24408;DHT22;12542;50.924;4.516;2023-12-20T05:23:43;7.30;99.90
24408;DHT22;12542;50.924;4.516;2023-12-20T05:26:09;7.20;99.90
24408;DHT22;12542;50.924;4.516;2023-12-20T05:28:35;7.10;99.90
24408;DHT22;12542;50.924;4.516;2023-12-20T05:31:00;7.20;99.90
24408;DHT22;12542;50.924;4.516;2023-12-20T05:33:26;7.30;99.90
24408;DHT22;12542;50.924;4.516;2023-12-20T05:35:52;7.30;99.90
24408;DHT22;12542;50.924;4.516;2023-12-20T05:38:17;7.30;99.90
24408;DHT22;12542;50.924;4.516;2023-12-20T05:40:43;7.30;99.90
24408;DHT22;12542;50.924;4.516;2023-12-20T05:43:09;7.30;99.90
24408;DHT22;12542;50.924;4.516;2023-12-20T05:45:34;7.40;99.90
24408;DHT22;12542;50.924;4.516;2023-12-20T05:48:00;7.30;99.90
24408;DHT22;12542;50.924;4.516;2023-12-20T05:50:28;7.40;99.90
24408;DHT22;12542;50.924;4.516;2023-12-20T05:52:53;7.40;99.90
24408;DHT22;12542;50.924;4.516;2023-12-20T05:55:19;7.30;99.90
24408;DHT22;12542;50.924;4.516;2023-12-20T05:57:45;7.40;99.90
24408;DHT22;12542;50.924;4.516;2023-12-20T06:00:11;7.40;99.90
24408;DHT22;12542;50.924;4.516;2023-12-20T06:02:37;7.50;99.90
24408;DHT22;12542;50.924;4.516;2023-12-20T06:05:04;7.40;99.90
24408;DHT22;12542;50.924;4.516;2023-12-20T06:07:30;7.20;99.90
24408;DHT22;12542;50.924;4.516;2023-12-20T06:09:56;7.20;99.90
24408;DHT22;12542;50.924;4.516;2023-12-20T06:12:21;7.30;99.90
24408;DHT22;12542;50.924;4.516;2023-12-20T06:14:47;7.30;99.90
24408;DHT22;12542;50.924;4.516;2023-12-20T06:17:13;7.40;99.90
24408;DHT22;12542;50.924;4.516;2023-12-20T06:19:39;7.30;99.90
24408;DHT22;12542;50.924;4.516;2023-12-20T06:22:04;7.30;99.90
24408;DHT22;12542;50.924;4.516;2023-12-20T06:24:30;7.30;99.90
24408;DHT22;12542;50.924;4.516;2023-12-20T06:26:56;7.30;99.90
24408;DHT22;12542;50.924;4.516;2023-12-20T06:29:21;7.30;99.90
24408;DHT22;12542;50.924;4.516;2023-12-20T06:31:47;7.20;99.90
24408;DHT22;12542;50.924;4.516;2023-12-20T06:34:15;7.30;99.90
24408;DHT22;12542;50.924;4.516;2023-12-20T06:36:41;7.50;99.90
24408;DHT22;12542;50.924;4.516;2023-12-20T06:39:07;7.50;99.90
24408;DHT22;12542;50.924;4.516;2023-12-20T06:41:34;7.60;99.90
24408;DHT22;12542;50.924;4.516;2023-12-20T06:43:59;7.50;99.90
24408;DHT22;12542;50.924;4.516;2023-12-20T06:46:25;7.50;99.90
24408;DHT22;12542;50.924;4.516;2023-12-20T06:48:51;7.50;99.90
24408;DHT22;12542;50.924;4.516;2023-12-20T06:51:17;7.40;99.90
24408;DHT22;12542;50.924;4.516;2023-12-20T06:53:45;7.40;99.90
24408;DHT22;12542;50.924;4.516;2023-12-20T06:56:11;7.40;99.90
24408;DHT22;12542;50.924;4.516;2023-12-20T06:58:37;7.40;99.90
24408;DHT22;12542;50.924;4.516;2023-12-20T07:01:03;7.50;99.90
24408;DHT22;12542;50.924;4.516;2023-12-20T07:03:30;7.30;99.90
24408;DHT22;12542;50.924;4.516;2023-12-20T07:05:55;7.30;99.90
24408;DHT22;12542;50.924;4.516;2023-12-20T07:08:21;7.20;99.90
24408;DHT22;12542;50.924;4.516;2023-12-20T07:10:46;7.10;99.90
24408;DHT22;12542;50.924;4.516;2023-12-20T07:13:13;7.00;99.90
24408;DHT22;12542;50.924;4.516;2023-12-20T07:15:38;7.00;99.90
24408;DHT22;12542;50.924;4.516;2023-12-20T07:18:04;7.00;99.90
24408;DHT22;12542;50.924;4.516;2023-12-20T07:20:31;7.00;99.90
24408;DHT22;12542;50.924;4.516;2023-12-20T07:22:57;7.10;99.90
24408;DHT22;12542;50.924;4.516;2023-12-20T07:25:23;7.10;99.90
24408;DHT22;12542;50.924;4.516;2023-12-20T07:27:48;7.10;99.90
24408;DHT22;12542;50.924;4.516;2023-12-20T07:30:14;7.10;99.90
24408;DHT22;12542;50.924;4.516;2023-12-20T07:32:40;7.20;99.90
24408;DHT22;12542;50.924;4.516;2023-12-20T07:35:06;7.10;99.90
24408;DHT22;12542;50.924;4.516;2023-12-20T07:37:32;7.00;99.90
24408;DHT22;12542;50.924;4.516;2023-12-20T07:39:57;7.00;99.90
24408;DHT22;12542;50.924;4.516;2023-12-20T07:42:23;7.00;99.90
24408;DHT22;12542;50.924;4.516;2023-12-20T07:44:49;7.00;99.90
24408;DHT22;12542;50.924;4.516;2023-12-20T07:47:14;7.00;99.90
24408;DHT22;12542;50.924;4.516;2023-12-20T07:49:42;6.80;99.90
24408;DHT22;12542;50.924;4.516;2023-12-20T07:52:08;6.70;99.90
24408;DHT22;12542;50.924;4.516;2023-12-20T07:54:34;6.80;99.90
24408;DHT22;12542;50.924;4.516;2023-12-20T07:56:59;6.90;99.90
24408;DHT22;12542;50.924;4.516;2023-12-20T07:59:25;7.00;99.90
24408;DHT22;12542;50.924;4.516;2023-12-20T08:01:50;6.90;99.90
24408;DHT22;12542;50.924;4.516;2023-12-20T08:04:16;7.00;99.90
24408;DHT22;12542;50.924;4.516;2023-12-20T08:06:42;7.10;99.90
24408;DHT22;12542;50.924;4.516;2023-12-20T08:09:07;7.10;99.90
24408;DHT22;12542;50.924;4.516;2023-12-20T08:11:33;7.20;99.90
24408;DHT22;12542;50.924;4.516;2023-12-20T08:14:01;7.30;99.90
24408;DHT22;12542;50.924;4.516;2023-12-20T08:16:27;7.40;99.90
24408;DHT22;12542;50.924;4.516;2023-12-20T08:18:52;7.50;99.90
24408;DHT22;12542;50.924;4.516;2023-12-20T08:21:18;7.70;99.90
24408;DHT22;12542;50.924;4.516;2023-12-20T08:23:46;7.90;99.90
24408;DHT22;12542;50.924;4.516;2023-12-20T08:26:13;8.30;99.90
24408;DHT22;12542;50.924;4.516;2023-12-20T08:28:38;8.60;99.90
24408;DHT22;12542;50.924;4.516;2023-12-20T08:31:04;8.70;99.90
24408;DHT22;12542;50.924;4.516;2023-12-20T08:33:30;9.10;99.90
24408;DHT22;12542;50.924;4.516;2023-12-20T08:35:55;9.70;99.90
24408;DHT22;12542;50.924;4.516;2023-12-20T08:38:21;10.30;99.90
24408;DHT22;12542;50.924;4.516;2023-12-20T08:40:47;10.50;99.90
24408;DHT22;12542;50.924;4.516;2023-12-20T08:43:13;10.00;99.90
24408;DHT22;12542;50.924;4.516;2023-12-20T08:45:39;9.80;99.90
24408;DHT22;12542;50.924;4.516;2023-12-20T08:48:05;9.30;99.90
24408;DHT22;12542;50.924;4.516;2023-12-20T08:50:31;9.10;99.90
24408;DHT22;12542;50.924;4.516;2023-12-20T08:52:57;8.90;99.90
24408;DHT22;12542;50.924;4.516;2023-12-20T08:55:23;8.60;99.90
24408;DHT22;12542;50.924;4.516;2023-12-20T08:57:48;8.60;99.90
24408;DHT22;12542;50.924;4.516;2023-12-20T09:00:15;8.70;99.90
24408;DHT22;12542;50.924;4.516;2023-12-20T09:02:41;9.30;99.90
24408;DHT22;12542;50.924;4.516;2023-12-20T09:05:07;10.40;99.90
24408;DHT22;12542;50.924;4.516;2023-12-20T09:07:33;11.20;99.90
24408;DHT22;12542;50.924;4.516;2023-12-20T09:09:59;12.00;99.90
24408;DHT22;12542;50.924;4.516;2023-12-20T09:12:26;12.70;99.90
24408;DHT22;12542;50.924;4.516;2023-12-20T09:14:53;13.30;99.90
24408;DHT22;12542;50.924;4.516;2023-12-20T09:17:19;13.90;99.90
24408;DHT22;12542;50.924;4.516;2023-12-20T09:19:48;14.20;99.90
24408;DHT22;12542;50.924;4.516;2023-12-20T09:22:14;14.40;99.90
24408;DHT22;12542;50.924;4.516;2023-12-20T09:24:40;14.50;99.90
24408;DHT22;12542;50.924;4.516;2023-12-20T09:27:07;15.20;99.90
24408;DHT22;12542;50.924;4.516;2023-12-20T09:29:32;15.70;99.90
24408;DHT22;12542;50.924;4.516;2023-12-20T09:31:58;15.80;99.90
24408;DHT22;12542;50.924;4.516;2023-12-20T09:34:24;15.80;99.90
24408;DHT22;12542;50.924;4.516;2023-12-20T09:36:51;15.40;99.90
24408;DHT22;12542;50.924;4.516;2023-12-20T09:39:18;15.30;99.90
24408;DHT22;12542;50.924;4.516;2023-12-20T09:42:07;14.70;99.90
24408;DHT22;12542;50.924;4.516;2023-12-20T09:44:33;14.80;99.90
24408;DHT22;12542;50.924;4.516;2023-12-20T09:47:06;14.80;99.90
24408;DHT22;12542;50.924;4.516;2023-12-20T09:49:33;14.50;99.90
24408;DHT22;12542;50.924;4.516;2023-12-20T09:52:00;13.80;99.90
24408;DHT22;12542;50.924;4.516;2023-12-20T09:54:28;13.00;99.90
24408;DHT22;12542;50.924;4.516;2023-12-20T09:56:54;12.30;99.90
24408;DHT22;12542;50.924;4.516;2023-12-20T09:59:20;11.80;99.90
24408;DHT22;12542;50.924;4.516;2023-12-20T10:01:48;11.20;99.90
24408;DHT22;12542;50.924;4.516;2023-12-20T10:04:15;11.10;99.90
24408;DHT22;12542;50.924;4.516;2023-12-20T10:06:42;11.10;99.90
24408;DHT22;12542;50.924;4.516;2023-12-20T10:09:09;11.00;99.90
24408;DHT22;12542;50.924;4.516;2023-12-20T10:11:39;10.80;99.90
24408;DHT22;12542;50.924;4.516;2023-12-20T10:14:07;11.00;99.90
24408;DHT22;12542;50.924;4.516;2023-12-20T10:16:34;10.80;99.90
24408;DHT22;12542;50.924;4.516;2023-12-20T10:19:00;10.60;99.90
24408;DHT22;12542;50.924;4.516;2023-12-20T10:21:27;10.50;99.90
24408;DHT22;12542;50.924;4.516;2023-12-20T10:23:57;10.40;99.90
24408;DHT22;12542;50.924;4.516;2023-12-20T10:26:25;10.30;99.90
24408;DHT22;12542;50.924;4.516;2023-12-20T10:28:56;10.20;99.90
24408;DHT22;12542;50.924;4.516;2023-12-20T10:31:29;10.30;99.90
24408;DHT22;12542;50.924;4.516;2023-12-20T10:33:59;10.20;99.90
24408;DHT22;12542;50.924;4.516;2023-12-20T10:36:32;10.30;99.90
24408;DHT22;12542;50.924;4.516;2023-12-20T10:38:59;10.20;99.90
24408;DHT22;12542;50.924;4.516;2023-12-20T10:41:28;10.20;99.90
24408;DHT22;12542;50.924;4.516;2023-12-20T10:44:02;10.20;99.90
24408;DHT22;12542;50.924;4.516;2023-12-20T10:46:29;10.20;99.90
24408;DHT22;12542;50.924;4.516;2023-12-20T10:49:05;10.20;99.90
24408;DHT22;12542;50.924;4.516;2023-12-20T10:51:33;10.20;99.90
24408;DHT22;12542;50.924;4.516;2023-12-20T10:53:59;10.20;99.90
24408;DHT22;12542;50.924;4.516;2023-12-20T10:56:25;10.20;99.90
24408;DHT22;12542;50.924;4.516;2023-12-20T10:58:56;10.30;99.90
24408;DHT22;12542;50.924;4.516;2023-12-20T11:01:23;10.20;99.90
24408;DHT22;12542;50.924;4.516;2023-12-20T11:03:51;10.20;99.90
24408;DHT22;12542;50.924;4.516;2023-12-20T11:06:46;10.30;99.90
24408;DHT22;12542;50.924;4.516;2023-12-20T11:09:22;10.30;99.90
24408;DHT22;12542;50.924;4.516;2023-12-20T11:14:54;10.20;99.90
24408;DHT22;12542;50.924;4.516;2023-12-20T11:17:26;10.10;99.90
24408;DHT22;12542;50.924;4.516;2023-12-20T11:22:21;9.90;99.90
24408;DHT22;12542;50.924;4.516;2023-12-20T11:24:48;9.90;99.90
24408;DHT22;12542;50.924;4.516;2023-12-20T11:27:14;9.80;99.90
24408;DHT22;12542;50.924;4.516;2023-12-20T11:29:41;9.80;99.90
24408;DHT22;12542;50.924;4.516;2023-12-20T11:37:31;9.70;99.90
24408;DHT22;12542;50.924;4.516;2023-12-20T11:40:06;9.80;99.90
24408;DHT22;12542;50.924;4.516;2023-12-20T11:42:50;9.80;99.90
24408;DHT22;12542;50.924;4.516;2023-12-20T11:45:18;9.90;99.90
24408;DHT22;12542;50.924;4.516;2023-12-20T11:47:48;10.00;99.90
24408;DHT22;12542;50.924;4.516;2023-12-20T11:50:20;10.00;99.90
24408;DHT22;12542;50.924;4.516;2023-12-20T11:52:47;9.90;99.90
24408;DHT22;12542;50.924;4.516;2023-12-20T11:55:13;9.90;99.90
24408;DHT22;12542;50.924;4.516;2023-12-20T11:57:39;9.90;99.90
24408;DHT22;12542;50.924;4.516;2023-12-20T12:00:07;9.80;99.90
24408;DHT22;12542;50.924;4.516;2023-12-20T12:02:33;9.90;99.90
24408;DHT22;12542;50.924;4.516;2023-12-20T12:04:59;9.80;99.90
24408;DHT22;12542;50.924;4.516;2023-12-20T12:07:25;9.80;99.90
24408;DHT22;12542;50.924;4.516;2023-12-20T12:09:51;9.80;99.90
24408;DHT22;12542;50.924;4.516;2023-12-20T12:12:17;9.80;99.90
24408;DHT22;12542;50.924;4.516;2023-12-20T12:14:45;9.80;99.90
24408;DHT22;12542;50.924;4.516;2023-12-20T12:17:12;9.90;99.90
24408;DHT22;12542;50.924;4.516;2023-12-20T12:19:41;10.00;99.90
24408;DHT22;12542;50.924;4.516;2023-12-20T12:22:14;10.10;99.90
24408;DHT22;12542;50.924;4.516;2023-12-20T12:24:41;9.90;99.90
24408;DHT22;12542;50.924;4.516;2023-12-20T12:27:08;9.90;99.90
24408;DHT22;12542;50.924;4.516;2023-12-20T12:29:34;9.90;99.90
24408;DHT22;12542;50.924;4.516;2023-12-20T12:32:00;9.90;99.90
24408;DHT22;12542;50.924;4.516;2023-12-20T12:34:29;9.90;99.90
24408;DHT22;12542;50.924;4.516;2023-12-20T12:36:55;9.90;99.90
24408;DHT22;12542;50.924;4.516;2023-12-20T12:39:23;10.00;99.90
24408;DHT22;12542;50.924;4.516;2023-12-20T12:41:50;9.90;99.90
24408;DHT22;12542;50.924;4.516;2023-12-20T12:44:16;9.90;99.90
24408;DHT22;12542;50.924;4.516;2023-12-20T12:46:45;9.90;99.90
24408;DHT22;12542;50.924;4.516;2023-12-20T12:49:11;9.80;99.90
24408;DHT22;12542;50.924;4.516;2023-12-20T12:51:37;10.00;99.90
24408;DHT22;12542;50.924;4.516;2023-12-20T12:54:03;10.00;99.90
24408;DHT22;12542;50.924;4.516;2023-12-20T12:56:29;10.00;99.90
24408;DHT22;12542;50.924;4.516;2023-12-20T12:58:57;10.00;99.90
24408;DHT22;12542;50.924;4.516;2023-12-20T13:01:22;10.00;99.90
24408;DHT22;12542;50.924;4.516;2023-12-20T13:03:48;10.10;99.90
24408;DHT22;12542;50.924;4.516;2023-12-20T13:06:16;10.00;99.90
24408;DHT22;12542;50.924;4.516;2023-12-20T13:08:43;10.00;99.90
24408;DHT22;12542;50.924;4.516;2023-12-20T13:11:09;10.00;99.90
24408;DHT22;12542;50.924;4.516;2023-12-20T13:13:35;9.90;99.90
24408;DHT22;12542;50.924;4.516;2023-12-20T13:16:01;10.00;99.90
24408;DHT22;12542;50.924;4.516;2023-12-20T13:18:26;9.90;99.90
24408;DHT22;12542;50.924;4.516;2023-12-20T13:20:52;10.10;99.90
24408;DHT22;12542;50.924;4.516;2023-12-20T13:23:18;10.20;99.90
24408;DHT22;12542;50.924;4.516;2023-12-20T13:25:44;10.20;99.90
24408;DHT22;12542;50.924;4.516;2023-12-20T13:28:13;10.20;99.90
24408;DHT22;12542;50.924;4.516;2023-12-20T13:30:39;10.30;99.90
24408;DHT22;12542;50.924;4.516;2023-12-20T13:33:05;10.30;99.90
24408;DHT22;12542;50.924;4.516;2023-12-20T13:35:31;10.30;99.90
24408;DHT22;12542;50.924;4.516;2023-12-20T13:37:58;10.30;99.90
24408;DHT22;12542;50.924;4.516;2023-12-20T13:40:23;10.30;99.90
24408;DHT22;12542;50.924;4.516;2023-12-20T13:42:49;10.20;99.90
24408;DHT22;12542;50.924;4.516;2023-12-20T13:45:15;10.30;99.90
24408;DHT22;12542;50.924;4.516;2023-12-20T13:47:41;10.20;99.90
24408;DHT22;12542;50.924;4.516;2023-12-20T13:50:07;10.20;99.90
24408;DHT22;12542;50.924;4.516;2023-12-20T13:52:33;10.20;99.90
24408;DHT22;12542;50.924;4.516;2023-12-20T13:54:58;10.30;99.90
24408;DHT22;12542;50.924;4.516;2023-12-20T13:57:24;10.20;99.90
24408;DHT22;12542;50.924;4.516;2023-12-20T13:59:49;10.20;99.90
24408;DHT22;12542;50.924;4.516;2023-12-20T14:02:15;10.30;99.90
24408;DHT22;12542;50.924;4.516;2023-12-20T14:04:42;10.40;99.90
24408;DHT22;12542;50.924;4.516;2023-12-20T14:07:08;10.40;99.90
24408;DHT22;12542;50.924;4.516;2023-12-20T14:09:35;10.30;99.90
24408;DHT22;12542;50.924;4.516;2023-12-20T14:12:00;10.30;99.90
24408;DHT22;12542;50.924;4.516;2023-12-20T14:14:26;10.30;99.90
24408;DHT22;12542;50.924;4.516;2023-12-20T14:16:51;10.30;99.90
24408;DHT22;12542;50.924;4.516;2023-12-20T14:19:17;10.30;99.90
24408;DHT22;12542;50.924;4.516;2023-12-20T14:21:43;10.30;99.90
24408;DHT22;12542;50.924;4.516;2023-12-20T14:24:14;10.40;99.90
24408;DHT22;12542;50.924;4.516;2023-12-20T14:26:41;10.40;99.90
24408;DHT22;12542;50.924;4.516;2023-12-20T14:29:07;10.50;99.90
24408;DHT22;12542;50.924;4.516;2023-12-20T14:31:33;10.50;99.90
24408;DHT22;12542;50.924;4.516;2023-12-20T14:33:59;10.60;99.90
24408;DHT22;12542;50.924;4.516;2023-12-20T14:36:26;10.50;99.90
24408;DHT22;12542;50.924;4.516;2023-12-20T14:38:52;10.50;99.90
24408;DHT22;12542;50.924;4.516;2023-12-20T14:41:18;10.50;99.90
24408;DHT22;12542;50.924;4.516;2023-12-20T14:43:44;10.60;99.90
24408;DHT22;12542;50.924;4.516;2023-12-20T14:46:10;10.60;99.90
24408;DHT22;12542;50.924;4.516;2023-12-20T14:48:35;10.70;99.90
24408;DHT22;12542;50.924;4.516;2023-12-20T14:51:01;10.70;99.90
24408;DHT22;12542;50.924;4.516;2023-12-20T14:53:27;10.60;99.90
24408;DHT22;12542;50.924;4.516;2023-12-20T14:55:52;10.50;99.90
24408;DHT22;12542;50.924;4.516;2023-12-20T14:58:18;10.50;99.90
24408;DHT22;12542;50.924;4.516;2023-12-20T15:00:44;10.50;99.90
24408;DHT22;12542;50.924;4.516;2023-12-20T15:03:10;10.60;99.90
24408;DHT22;12542;50.924;4.516;2023-12-20T15:05:38;10.60;99.90
24408;DHT22;12542;50.924;4.516;2023-12-20T15:08:05;10.50;99.90
24408;DHT22;12542;50.924;4.516;2023-12-20T15:10:30;10.50;99.90
24408;DHT22;12542;50.924;4.516;2023-12-20T15:12:56;10.50;99.90
24408;DHT22;12542;50.924;4.516;2023-12-20T15:15:24;10.60;99.90
24408;DHT22;12542;50.924;4.516;2023-12-20T15:17:50;10.60;99.90
24408;DHT22;12542;50.924;4.516;2023-12-20T15:20:16;10.60;99.90
24408;DHT22;12542;50.924;4.516;2023-12-20T15:22:41;10.50;99.90
24408;DHT22;12542;50.924;4.516;2023-12-20T15:25:11;10.50;99.90
24408;DHT22;12542;50.924;4.516;2023-12-20T15:27:37;10.50;99.90
24408;DHT22;12542;50.924;4.516;2023-12-20T15:30:05;10.50;99.90
24408;DHT22;12542;50.924;4.516;2023-12-20T15:32:32;10.50;99.90
24408;DHT22;12542;50.924;4.516;2023-12-20T15:34:59;10.50;99.90
24408;DHT22;12542;50.924;4.516;2023-12-20T15:37:25;10.40;99.90
24408;DHT22;12542;50.924;4.516;2023-12-20T15:39:52;10.50;99.90
24408;DHT22;12542;50.924;4.516;2023-12-20T15:42:18;10.40;99.90
24408;DHT22;12542;50.924;4.516;2023-12-20T15:44:44;10.40;99.90
24408;DHT22;12542;50.924;4.516;2023-12-20T15:47:10;10.50;99.90
24408;DHT22;12542;50.924;4.516;2023-12-20T15:49:36;10.50;99.90